Data for 03/16/2017

Time Sea-Level Adjusted Pressure Absolute Pressure Temperature Relative Humidity Dew Point   
(mb) (inHg) (mb) (inHg) (C) (F) (%) (C) (F)
00:05 1013 29.91 842 24.86 11.9 53.3 22 -9.2 15.4
00:10 1013 29.91 842 24.86 11.6 52.8 23 -8.9 16
00:15 1013 29.91 843 24.89 12.1 53.8 29 -5.1 22.8
00:20 1013 29.91 843 24.89 12.6 54.6 32 -3.6 25.6
00:25 1013 29.91 842 24.86 12.5 54.6 32 -3.8 25.2
00:30 1013 29.91 842 24.86 12.6 54.6 32 -3.5 25.7
00:35 1013 29.91 842 24.86 12.5 54.5 32 -3.8 25.2
00:40 1013 29.91 842 24.86 12.5 54.6 33 -3.4 25.8
00:45 1013 29.91 842 24.86 12.4 54.4 33 -3.3 26.1
00:50 1013 29.91 842 24.86 12.4 54.3 33 -3.6 25.5
00:55 1013 29.91 842 24.86 12.4 54.3 33 -3.2 26.2
01:00 1013 29.91 842 24.86 12.3 54.1 35 -2.7 27.2
01:05 1013 29.91 842 24.86 12.3 54.1 34 -3 26.6
01:10 1013 29.91 842 24.86 12.3 54.1 36 -2.4 27.6
01:15 1013 29.91 842 24.86 12.1 53.9 35 -2.7 27.1
01:20 1013 29.91 842 24.86 12.1 53.7 36 -2.5 27.5
01:25 1013 29.91 842 24.86 12 53.6 37 -2.3 27.8
01:30 1013 29.91 842 24.86 12 53.6 35 -2.8 27
01:35 1013 29.91 842 24.86 12.1 53.8 34 -3.1 26.5
01:40 1013 29.91 842 24.86 12.2 53.9 35 -2.9 26.8
01:45 1013 29.91 842 24.86 12.2 53.9 34 -3.1 26.4
01:50 1013 29.91 842 24.86 12.2 54 34 -3.2 26.2
01:55 1013 29.91 842 24.86 12.3 54.1 34 -3.2 26.2
02:00 1013 29.91 842 24.86 12.3 54.1 34 -3.2 26.2
02:05 1013 29.91 842 24.86 12.2 54 34 -3.2 26.2
02:05 1013 29.91 842 24.86 12.2 54 34 -3.2 26.2
02:10 1013 29.91 842 24.86 12.3 54.1 33 -3.3 26.1
02:15 1013 29.91 842 24.86 12.3 54.1 34 -3.1 26.4
02:20 1013 29.91 842 24.86 12.2 54 34 -3.2 26.2
02:25 1013 29.91 842 24.86 12.1 53.8 34 -3.2 26.3
02:30 1013 29.91 842 24.86 12 53.6 35 -3.1 26.4
02:35 1013 29.91 842 24.86 11.9 53.5 34 -3.3 26
02:40 1013 29.91 842 24.86 11.9 53.4 34 -3.4 25.8
02:45 1013 29.91 842 24.86 11.9 53.5 34 -3.3 26.1
02:50 1013 29.91 842 24.86 11.9 53.5 34 -3.5 25.7
02:55 1013 29.91 842 24.86 12 53.7 33 -3.6 25.5
03:00 1013 29.91 842 24.86 12.2 53.9 33 -3.5 25.7
03:05 1013 29.91 842 24.86 12.1 53.7 34 -3.1 26.5
03:10 1013 29.91 842 24.86 11.8 53.2 36 -2.9 26.7
03:15 1013 29.91 842 24.86 11.6 52.8 36 -3 26.5
03:20 1013 29.91 842 24.86 11.5 52.8 35 -3.3 26.1
03:25 1013 29.91 842 24.86 11.5 52.8 35 -3.4 26
03:30 1013 29.91 842 24.86 11.6 52.8 34 -3.7 25.3
03:35 1013 29.91 842 24.86 11.6 52.9 34 -3.6 25.6
03:40 1013 29.91 842 24.86 11.5 52.7 35 -3.5 25.6
03:45 1012 29.88 842 24.86 11.5 52.7 35 -3.5 25.7
03:50 1012 29.88 841 24.83 11.5 52.8 36 -2.9 26.8
03:55 1012 29.88 841 24.83 11.5 52.6 37 -2.6 27.4
04:00 1012 29.88 841 24.83 11.4 52.4 38 -2.4 27.7
04:05 1012 29.88 841 24.83 11.3 52.3 38 -2.4 27.7
04:10 1012 29.88 842 24.86 11.3 52.3 37 -2.8 26.9
04:15 1013 29.91 842 24.86 11.6 52.9 36 -2.9 26.7
04:20 1013 29.91 842 24.86 11.6 52.9 37 -2.7 27.2
04:25 1013 29.91 842 24.86 11.4 52.5 37 -2.7 27.1
04:30 1013 29.91 842 24.86 11.4 52.4 39 -2.2 28
04:35 1013 29.91 842 24.86 10.9 51.7 40 -2.2 28.1
04:40 1013 29.91 842 24.86 10.7 51.2 41 -2.1 28.2
04:45 1013 29.91 842 24.86 10.4 50.7 42 -1.8 28.7
04:50 1013 29.91 842 24.86 10.1 50.1 43 -1.9 28.6
04:55 1013 29.91 842 24.86 9.9 49.7 43 -2 28.4
05:00 1013 29.91 842 24.86 9.8 49.6 44 -2 28.4
05:05 1013 29.91 843 24.89 9.7 49.5 43 -2.3 27.9
05:10 1013 29.91 843 24.89 9.9 49.9 42 -2.3 27.8
05:15 1013 29.91 843 24.89 10.1 50.2 41 -2.5 27.6
05:20 1013 29.91 843 24.89 10.4 50.8 40 -2.5 27.5
05:25 1013 29.91 843 24.89 10.6 51 40 -2.3 27.9
05:30 1013 29.91 843 24.89 10.6 51 40 -2.5 27.4
05:35 1013 29.91 843 24.89 10.8 51.4 39 -2.4 27.6
05:40 1014 29.94 843 24.89 10.8 51.4 40 -2.2 28
05:45 1014 29.94 843 24.89 10.7 51.2 42 -1.6 29.2
05:50 1014 29.94 843 24.89 10.2 50.3 46 -1 30.3
05:55 1014 29.94 843 24.89 9.7 49.5 50 -0.3 31.5
06:00 1014 29.94 843 24.89 8.9 48.1 55 0.5 32.8
06:05 1014 29.94 844 24.92 8 46.4 61 0.9 33.6
06:10 1014 29.94 843 24.89 7.5 45.5 63 0.8 33.5
06:15 1014 29.94 844 24.92 7.2 45 65 1.1 34
06:20 1014 29.94 843 24.89 6.9 44.5 66 1.1 34
06:25 1014 29.94 844 24.92 6.8 44.2 68 1.3 34.4
06:30 1014 29.94 844 24.92 6.6 44 69 1.3 34.4
06:35 1014 29.94 844 24.92 6.5 43.7 68 1.1 34
06:40 1015 29.97 844 24.92 6.4 43.6 69 1.1 34
06:45 1015 29.97 844 24.92 6.4 43.5 68 1 33.8
06:50 1015 29.97 844 24.92 6.4 43.5 69 1.1 34
06:55 1015 29.97 844 24.92 5.8 42.5 72 1.1 34
07:00 1015 29.97 844 24.92 5.6 42.1 69 0.4 32.7
07:05 1015 29.97 844 24.92 6 42.8 69 0.9 33.6
07:10 1015 29.97 844 24.92 5.9 42.6 70 0.8 33.5
07:15 1015 29.97 844 24.92 5.9 42.6 70 0.9 33.6
07:20 1015 29.97 844 24.92 6 42.8 69 0.7 33.2
07:25 1015 29.97 844 24.92 6.2 43.2 68 0.8 33.5
07:30 1015 29.97 845 24.95 6.4 43.6 67 0.8 33.4
07:35 1015 29.97 845 24.95 6.5 43.7 70 1.4 34.5
07:40 1016 30 845 24.95 6.2 43.1 73 1.7 35.1
07:45 1016 30 845 24.95 5.7 42.3 73 1.3 34.3
07:50 1016 30 845 24.95 5.9 42.7 72 1.2 34.2
07:55 1017 30.03 846 24.98 5.8 42.4 77 2 35.6
08:00 1017 30.03 846 24.98 5.2 41.4 80 2 35.7
08:05 1017 30.03 846 24.98 4.7 40.5 81 1.8 35.2
08:10 1017 30.03 846 24.98 4.3 39.7 84 1.8 35.2
08:15 1017 30.03 846 24.98 4 39.3 85 1.7 35.1
08:20 1017 30.03 847 25.01 3.9 39.1 86 1.8 35.2
08:25 1018 30.06 847 25.01 4 39.1 86 1.8 35.2
08:30 1018 30.06 847 25.01 4 39.2 86 1.9 35.5
08:35 1018 30.06 847 25.01 4.1 39.4 86 2 35.7
08:40 1018 30.06 847 25.01 4.3 39.7 85 2.1 35.7
08:45 1018 30.06 847 25.01 4.4 39.9 85 2.1 35.7
08:50 1018 30.06 847 25.01 4.4 39.9 84 1.9 35.4
08:55 1018 30.06 847 25.01 4.1 39.3 85 1.8 35.2
09:00 1018 30.06 847 25.01 3.9 39.1 84 1.6 34.8
09:05 1018 30.06 847 25.01 3.8 38.9 84 1.4 34.5
09:10 1018 30.06 847 25.01 3.9 39 84 1.4 34.6
09:15 1018 30.06 847 25.01 4 39.2 84 1.6 34.8
09:20 1018 30.06 847 25.01 4 39.2 84 1.5 34.6
09:25 1018 30.06 847 25.01 3.9 39.1 85 1.6 34.8
09:30 1018 30.06 847 25.01 3.7 38.7 85 1.5 34.6
09:35 1018 30.06 847 25.01 3.6 38.5 85 1.3 34.4
09:40 1018 30.06 847 25.01 3.5 38.3 86 1.4 34.5
09:45 1018 30.06 847 25.01 3.5 38.3 87 1.5 34.7
09:50 1018 30.06 847 25.01 3.5 38.3 85 1.2 34.2
09:55 1018 30.06 847 25.01 3.6 38.4 84 1 33.9
10:00 1018 30.06 847 25.01 3.5 38.4 86 1.4 34.5
10:05 1018 30.06 847 25.01 3.7 38.6 85 1.4 34.5
10:10 1018 30.06 847 25.01 3.7 38.7 81 0.8 33.4
10:15 1018 30.06 847 25.01 3.6 38.5 84 1.2 34.1
10:20 1018 30.06 847 25.01 4 39.1 83 1.3 34.4
10:25 1018 30.06 847 25.01 4.4 39.9 80 1.2 34.1
10:30 1018 30.06 847 25.01 4.5 40 79 1.2 34.1
10:35 1018 30.06 847 25.01 4.5 40.1 81 1.6 34.9
10:40 1018 30.06 847 25.01 4.9 40.9 79 1.5 34.8
10:45 1018 30.06 847 25.01 4.8 40.6 83 2.1 35.7
10:50 1018 30.06 847 25.01 4.9 40.9 79 1.6 34.9
10:55 1018 30.06 847 25.01 5 41 79 1.7 35
11:00 1018 30.06 847 25.01 4.8 40.7 80 1.7 35.1
11:05 1018 30.06 847 25.01 4.7 40.5 83 2.1 35.8
11:10 1018 30.06 847 25.01 5.1 41.2 80 2 35.6
11:15 1018 30.06 847 25.01 5.3 41.5 78 1.8 35.3
11:20 1018 30.06 847 25.01 5.2 41.3 80 1.9 35.5
11:25 1018 30.06 847 25.01 5.1 41.2 79 1.7 35.1
11:30 1018 30.06 847 25.01 5.4 41.6 79 2.1 35.8
11:35 1018 30.06 847 25.01 5.4 41.7 81 2.4 36.3
11:40 1018 30.06 847 25.01 5.6 42.1 79 2.3 36.2
11:45 1018 30.06 847 25.01 5.7 42.2 77 2 35.7
11:50 1018 30.06 847 25.01 5.7 42.3 78 2.2 36
11:55 1018 30.06 847 25.01 5.9 42.7 78 2.3 36.2
12:00 1018 30.06 847 25.01 6.2 43.1 77 2.5 36.5
12:05 1018 30.06 847 25.01 6.4 43.5 72 1.8 35.2
12:10 1018 30.06 847 25.01 6.8 44.2 69 1.5 34.7
12:15 1018 30.06 847 25.01 7.3 45.1 68 1.8 35.2
12:20 1018 30.06 847 25.01 8 46.4 65 1.8 35.3
12:25 1018 30.06 847 25.01 8 46.3 66 2 35.5
12:30 1018 30.06 847 25.01 7.5 45.4 69 2.1 35.7
12:35 1018 30.06 847 25.01 7.5 45.5 68 2 35.5
12:40 1018 30.06 847 25.01 7.6 45.7 68 2.1 35.8
12:45 1018 30.06 847 25.01 7.3 45.1 68 1.9 35.4
12:50 1018 30.06 847 25.01 7.1 44.7 69 1.8 35.3
12:55 1018 30.06 847 25.01 7.8 46.1 68 2.4 36.3
13:00 1018 30.06 847 25.01 8.6 47.5 61 1.6 34.9
13:05 1018 30.06 847 25.01 8.6 47.5 62 1.7 35.1
13:10 1018 30.06 847 25.01 8.2 46.8 69 2.9 37.2
13:15 1018 30.06 847 25.01 8.2 46.8 65 2.1 35.8
13:20 1018 30.06 847 25.01 8.3 46.9 67 2.6 36.7
13:25 1018 30.06 847 25.01 8.2 46.7 68 2.6 36.7
13:30 1017 30.03 847 25.01 7.8 46 70 2.6 36.8
13:35 1018 30.06 847 25.01 7.1 44.7 76 3.1 37.5
13:40 1018 30.06 847 25.01 6.4 43.6 79 3.1 37.5
13:45 1018 30.06 847 25.01 6.2 43.1 80 3 37.4
13:50 1018 30.06 847 25.01 6.4 43.5 80 3.1 37.6
13:55 1018 30.06 847 25.01 6.5 43.7 79 3.1 37.5
14:00 1018 30.06 847 25.01 6.7 44.1 79 3.3 37.9
14:05 1018 30.06 847 25.01 7.3 45.1 77 3.5 38.3
14:10 1018 30.06 847 25.01 7.7 45.9 75 3.6 38.5
14:15 1018 30.06 847 25.01 8.1 46.6 68 2.5 36.6
14:20 1018 30.06 847 25.01 8.3 47 68 2.9 37.2
14:25 1018 30.06 847 25.01 8.1 46.6 72 3.3 38
14:30 1018 30.06 847 25.01 8.2 46.8 68 2.8 37
14:35 1018 30.06 847 25.01 8.4 47.1 67 2.6 36.7
14:40 1018 30.06 847 25.01 8.1 46.6 73 3.7 38.6
14:45 1018 30.06 847 25.01 6.9 44.5 75 2.8 37.1
14:50 1018 30.06 847 25.01 6.8 44.3 76 2.8 37.1
14:55 1018 30.06 847 25.01 6.7 44.1 76 2.7 36.9
15:00 1018 30.06 847 25.01 6.9 44.5 74 2.6 36.7
15:05 1018 30.06 847 25.01 7.3 45.1 73 2.8 37
15:10 1018 30.06 847 25.01 8 46.4 69 2.6 36.7
15:15 1018 30.06 847 25.01 8.7 47.7 65 2.5 36.4
15:20 1018 30.06 847 25.01 9.3 48.7 60 1.8 35.3
15:25 1018 30.06 847 25.01 9.5 49.2 59 1.9 35.4
15:30 1018 30.06 847 25.01 9.4 48.8 59 1.9 35.4
15:35 1018 30.06 847 25.01 10 49.9 55 1.4 34.6
15:40 1018 30.06 847 25.01 9.9 49.8 56 1.7 35
15:45 1018 30.06 847 25.01 9.6 49.2 57 1.6 34.9
15:50 1018 30.06 847 25.01 9.6 49.2 57 1.4 34.5
15:55 1018 30.06 847 25.01 9.5 49.1 57 1.5 34.6
16:00 1018 30.06 847 25.01 9.6 49.2 56 1.2 34.2
16:05 1018 30.06 847 25.01 9.6 49.2 57 1.5 34.7
16:10 1018 30.06 847 25.01 9.6 49.2 50 -0.3 31.4
16:15 1018 30.06 847 25.01 9.8 49.6 47 -0.9 30.4
16:20 1018 30.06 848 25.04 9.9 49.9 42 -2.3 27.8
16:25 1018 30.06 848 25.04 10.3 50.5 39 -2.9 26.7
16:30 1018 30.06 848 25.04 10.4 50.6 38 -3.3 26
16:35 1018 30.06 848 25.04 10.3 50.5 33 -5.1 22.9
16:40 1018 30.06 848 25.04 10.6 51.1 31 -6 21.2
16:45 1018 30.06 848 25.04 10.5 50.9 32 -5.4 22.3
16:50 1018 30.06 848 25.04 10.3 50.6 32 -5.5 22.2
16:55 1019 30.09 848 25.04 10.3 50.5 32 -5.8 21.6
17:00 1018 30.06 848 25.04 10.2 50.3 31 -6 21.2
17:05 1019 30.09 848 25.04 10.2 50.4 33 -5.4 22.2
17:10 1019 30.09 848 25.04 10.2 50.3 33 -5.2 22.6
17:15 1019 30.09 848 25.04 9.9 49.9 32 -5.9 21.4
17:20 1019 30.09 848 25.04 9.6 49.3 33 -5.9 21.5
17:25 1019 30.09 848 25.04 9.6 49.3 32 -6.3 20.6
17:30 1019 30.09 848 25.04 9.4 48.9 32 -6.7 20
17:35 1019 30.09 848 25.04 9.3 48.7 31 -6.9 19.6
17:40 1019 30.09 848 25.04 9.4 48.9 31 -6.8 19.7
17:45 1019 30.09 848 25.04 9.2 48.6 31 -6.9 19.6
17:50 1019 30.09 848 25.04 9 48.2 32 -6.9 19.5
17:55 1019 30.09 848 25.04 8.8 47.8 32 -6.9 19.6
18:00 1019 30.09 848 25.04 8.7 47.7 33 -6.7 19.9
18:05 1019 30.09 848 25.04 8.6 47.5 33 -6.9 19.6
18:10 1019 30.09 848 25.04 8.5 47.2 32 -7.1 19.2
18:15 1019 30.09 849 25.07 8.4 47.1 34 -6.7 19.9
18:20 1019 30.09 849 25.07 8.3 46.9 33 -7 19.4
18:25 1019 30.09 849 25.07 8.1 46.6 33 -7.2 19
18:30 1019 30.09 849 25.07 7.9 46.3 34 -7 19.4
18:35 1020 30.12 849 25.07 7.8 46 33 -7.3 18.8
18:40 1020 30.12 849 25.07 7.6 45.6 34 -7.2 19
18:45 1020 30.12 849 25.07 7.4 45.3 34 -7.3 18.8
18:50 1020 30.12 849 25.07 7.4 45.2 35 -7.2 19.1
18:55 1020 30.12 849 25.07 7.2 44.9 36 -6.8 19.8
19:00 1020 30.12 849 25.07 6.8 44.2 39 -6.2 20.8
19:05 1020 30.12 849 25.07 6.5 43.6 39 -6.5 20.3
19:10 1020 30.12 849 25.07 6.3 43.4 39 -6.7 19.9
19:15 1020 30.12 849 25.07 6.4 43.6 37 -7.1 19.3
19:20 1020 30.12 849 25.07 6.5 43.7 37 -7.3 18.9
19:25 1020 30.12 850 25.1 6.5 43.8 35 -8 17.6
19:30 1020 30.12 850 25.1 6.5 43.7 33 -8.5 16.7
19:35 1020 30.12 850 25.1 6.5 43.8 35 -7.7 18.2
19:40 1020 30.12 850 25.1 6.4 43.5 34 -8.4 16.9
19:45 1021 30.15 850 25.1 6.3 43.4 36 -7.7 18.1
19:50 1021 30.15 850 25.1 6.1 43 37 -7.6 18.4
19:55 1021 30.15 850 25.1 5.9 42.7 36 -8.1 17.4
20:00 1021 30.15 850 25.1 5.8 42.5 37 -7.8 18
20:05 1021 30.15 850 25.1 5.7 42.2 35 -8.7 16.4
20:10 1021 30.15 850 25.1 5.7 42.2 35 -8.8 16.2
20:15 1021 30.15 850 25.1 5.7 42.3 34 -9.2 15.5
20:20 1021 30.15 850 25.1 5.7 42.3 33 -9.5 14.9
20:25 1021 30.15 850 25.1 5.8 42.4 32 -9.6 14.7
20:30 1021 30.15 850 25.1 5.8 42.4 33 -9.3 15.2
20:35 1021 30.15 850 25.1 5.5 41.9 38 -7.8 18
20:40 1021 30.15 851 25.13 4.8 40.7 40 -7.6 18.4
20:45 1021 30.15 851 25.13 4.4 40 40 -8 17.7
20:50 1021 30.15 851 25.13 4.4 40 39 -8.4 16.9
20:55 1021 30.15 851 25.13 4.6 40.2 36 -9.1 15.6
21:00 1022 30.18 851 25.13 4.7 40.5 36 -9 15.7
21:05 1022 30.18 851 25.13 4.9 40.7 36 -8.8 16.1
21:10 1022 30.18 851 25.13 4.9 40.8 36 -9 15.8
21:15 1022 30.18 851 25.13 4.8 40.7 39 -8.1 17.4
21:20 1022 30.18 851 25.13 4.5 40.2 40 -7.9 17.8
21:25 1022 30.18 851 25.13 4.2 39.5 40 -8.4 16.8
21:30 1022 30.18 851 25.13 4 39.2 40 -8.3 17.1
21:35 1022 30.18 851 25.13 3.9 39 39 -9 15.8
21:40 1022 30.18 851 25.13 4 39.2 38 -9.1 15.6
21:45 1022 30.18 851 25.13 4.3 39.7 37 -9.3 15.3
21:50 1022 30.18 851 25.13 4.6 40.3 38 -8.4 16.9
21:55 1022 30.18 851 25.13 4.4 40 38 -8.6 16.5
22:00 1022 30.18 851 25.13 4.3 39.7 41 -7.8 18
22:05 1022 30.18 851 25.13 3.9 39.1 43 -7.7 18.2
22:10 1022 30.18 851 25.13 3.8 38.9 43 -7.5 18.5
22:15 1022 30.18 851 25.13 3.5 38.3 52 -5.5 22.1
22:20 1022 30.18 851 25.13 2.5 36.4 56 -5.5 22.1
22:25 1022 30.18 852 25.16 2 35.6 57 -5.7 21.7
22:30 1022 30.18 852 25.16 1.9 35.5 57 -5.8 21.6
22:35 1022 30.18 852 25.16 1.9 35.5 55 -6.1 21
22:40 1023 30.21 852 25.16 2.2 35.9 55 -6 21.2
22:45 1023 30.21 852 25.16 1.9 35.3 56 -6 21.2
22:50 1023 30.21 852 25.16 1.9 35.4 53 -6.6 20.1
22:55 1023 30.21 852 25.16 2.1 35.7 54 -6.2 20.9
23:00 1023 30.21 852 25.16 1.9 35.4 55 -6.2 20.8
23:05 1023 30.21 852 25.16 1.8 35.3 55 -6.2 20.9
23:10 1023 30.21 852 25.16 1.7 35 55 -6.4 20.5
23:15 1023 30.21 852 25.16 1.7 35 55 -6.3 20.6
23:20 1023 30.21 852 25.16 1.7 35 54 -6.6 20.2
23:25 1023 30.21 852 25.16 1.7 35 54 -6.6 20
23:30 1023 30.21 852 25.16 1.7 35.1 53 -6.8 19.8
23:35 1023 30.21 852 25.16 1.8 35.2 54 -6.6 20
23:40 1023 30.21 852 25.16 1.6 34.9 55 -6.5 20.4
23:45 1023 30.21 852 25.16 1.5 34.7 55 -6.7 19.9
23:50 1023 30.21 852 25.16 1.5 34.8 53 -7.1 19.2
23:55 1023 30.21 852 25.16 1.8 35.3 51 -7.3 18.9
24:00 1023 30.21 852 25.16 1.9 35.4 51 -7.2 19.1